NCAR-RAP Real-Time Weather Data

Output produced by METARs form (24 January 2022  22:44 UTC)
found at http://weather.rap.ucar.edu/surface/
 
KBWG 242153Z AUTO 24009KT 10SM FEW110 13/01 A2976 RMK AO2 SLP079 T01330006
KBWG 242053Z AUTO 24010KT 10SM CLR 13/01 A2976 RMK AO2 SLP079 T01280011 56019
KBWG 241953Z AUTO 23012G18KT 10SM CLR 12/01 A2977 RMK AO2 SLP083 T01220011
KBWG 241853Z AUTO 22010G18KT 10SM FEW090 09/00 A2979 RMK AO2 SLP090 T00890000
KBWG 241753Z AUTO 21011KT 10SM FEW090 08/M01 A2982 RMK AO2 SLP099 T00781006 10078 21011 58016
KBWG 241653Z AUTO 23009G18KT 10SM FEW110 07/M02 A2984 RMK AO2 SLP108 T00671017
KBWG 241553Z AUTO 20010KT 05/M02 A2985 RMK AO2 SLP111 T00501022
KBWG 241453Z AUTO 19009KT 10SM SCT120 02/M04 A2986 RMK AO2 SLP116 T00221044 58012
KBWG 241353Z AUTO 19005KT 10SM OVC120 01/M05 A2988 RMK AO2 SLP122 T00061050